world map with SOU marked

SOU - Airport

This information may not be accurate or current and is not valid for navigation or flight planning. No warranty of fitness for any purpose is made or implied.

flag of Englandflag of United Kingdom

Donate via PayPal

Additional information is available on the NEW Great Circle Mapper

Location
City:  Southampton, Hampshire, England, United Kingdom
Name:Eastleigh
ICAO / IATA:EGHI / SOU

Details
Type:Airport (Aerodrome, Airfield)
Use:Public/Civil
Latitude:50°57'01"N (50.950261)
Longitude:1°21'24"W (-1.356802)
Datum:WGS 1984
Elevation:44 ft (13 m)
Runways:1
Longest:5653 × 121 ft (1723 × 37 m)

Time
Timezone:UTC+0 (DST+3)
Local Time:

Weather
METAR:EGHI  041350Z 19006KT 160V220 3000 -RADZ BR BKN005 09/08 Q1017 REDZ
TAF:EGHI  (expired)

Related Locations
Nearby:
Farthest:NZDC: 11923 mi / 19188 km
Dunedin [City Heliport], OTA, NZ

Find:

   beyond  
but within

Other Information
Maps:
Links:
Sources:

  


 


Great Circle Mapper   Great Circle Mapper
Great Circle Mapper FAQ   Great Circle Mapper FAQ
  Karl's Home Page
KLSē   KLSē Home
   GC on Facebook
Airlines of the World   Airlines of the World
Donate via PayPal


Copyright © 2004-2019, Karl L. Swartz. All rights reserved.
All trademarks mentioned herein belong to their respective owners.

Please see credits for attribution and copyright information.

Karl Swartz <karl@kls2.com>
  Powered by FreeBSD
Valid HTML 4.01!
Labeled with ICRA
hCard Microformat
Geo Microformat